Time;durP1;ratioP1;P1;durP2;ratioP2;P2;SDS_P1;SDS_P2;PMS_P1;PMS_P2;Temp;Humidity;BMP_temperature;BMP_pressure;BME280_temperature;BME280_humidity;BME280_pressure;Samples;Min_cycle;Max_cycle;Signal;HPM_P1;HPM_P2
2023/06/12 00:00:34;;;;;;;5.30;3.00;;;;;;;13.01;100.00;99964.30;104734;1262;65640;-59
2023/06/12 00:03:02;;;;;;;5.90;3.30;;;;;;;12.99;100.00;99969.16;104885;1257;73372;-60
2023/06/12 00:05:30;;;;;;;4.50;2.40;;;;;;;12.98;100.00;99966.70;105094;1261;60470;-59
2023/06/12 00:07:58;;;;;;;5.60;2.90;;;;;;;12.99;100.00;99962.95;105404;1255;60569;-60
2023/06/12 00:10:26;;;;;;;5.00;2.90;;;;;;;12.98;100.00;99960.58;104891;1254;72192;-59
2023/06/12 00:12:54;;;;;;;5.20;2.70;;;;;;;12.99;100.00;99962.95;104975;1260;66902;-60
2023/06/12 00:15:22;;;;;;;5.70;2.90;;;;;;;12.98;100.00;99958.33;105143;1258;71588;-60
2023/06/12 00:17:50;;;;;;;4.90;2.70;;;;;;;12.98;100.00;99957.89;105149;1261;61209;-66
2023/06/12 00:20:17;;;;;;;4.30;2.80;;;;;;;12.97;100.00;99959.91;104759;1260;60227;-59
2023/06/12 00:22:45;;;;;;;4.20;2.50;;;;;;;12.96;100.00;99963.02;105020;1260;72471;-60
2023/06/12 00:25:13;;;;;;;7.30;2.50;;;;;;;12.96;100.00;99964.42;105005;1254;65218;-60
2023/06/12 00:27:41;;;;;;;6.00;3.00;;;;;;;12.97;100.00;99962.96;105515;1257;72735;-63
2023/06/12 00:30:10;;;;;;;5.30;2.70;;;;;;;12.96;100.00;99968.20;104903;1262;61744;-60
2023/06/12 00:32:38;;;;;;;4.30;2.60;;;;;;;12.96;100.00;99970.75;105039;1255;59622;-60
2023/06/12 00:35:06;;;;;;;4.00;2.70;;;;;;;12.95;100.00;99967.88;105107;1254;73109;-59
2023/06/12 00:37:34;;;;;;;3.20;2.30;;;;;;;12.95;100.00;99967.84;105084;1256;66913;-66
2023/06/12 00:40:03;;;;;;;5.70;2.70;;;;;;;12.96;100.00;99960.58;105059;1256;72567;-61
2023/06/12 00:42:35;;;;;;;3.70;2.40;;;;;;;12.95;100.00;99965.05;105015;1257;61684;-59
2023/06/12 00:45:05;;;;;;;5.40;2.60;;;;;;;12.93;100.00;99960.96;105073;1254;60456;-60
2023/06/12 00:47:32;;;;;;;5.60;2.10;;;;;;;12.92;100.00;99957.06;105595;1256;73845;-66
2023/06/12 00:50:00;;;;;;;5.90;2.80;;;;;;;12.91;100.00;99955.60;105057;1257;67343;-61
2023/06/12 00:52:34;;;;;;;4.40;2.30;;;;;;;12.90;100.00;99949.78;105081;1260;71794;-60
2023/06/12 00:55:02;;;;;;;5.60;2.90;;;;;;;12.91;100.00;99954.00;104974;1260;60533;-61
2023/06/12 00:57:31;;;;;;;4.00;2.70;;;;;;;12.91;100.00;99954.52;105077;1254;60556;-59
2023/06/12 01:00:01;;;;;;;4.90;2.60;;;;;;;12.90;100.00;99951.23;105068;1254;74483;-60
2023/06/12 01:02:30;;;;;;;5.40;2.60;;;;;;;12.89;100.00;99955.55;105050;1254;65879;-63
2023/06/12 01:04:59;;;;;;;6.10;2.40;;;;;;;12.89;100.00;99954.73;104948;1254;72490;-60
2023/06/12 01:07:35;;;;;;;3.80;2.60;;;;;;;12.90;100.00;99955.45;104997;1262;60622;-59
2023/06/12 01:10:14;;;;;;;4.80;2.50;;;;;;;12.90;100.00;99950.42;105021;1254;60547;-59
2023/06/12 01:12:42;;;;;;;5.70;2.70;;;;;;;12.92;100.00;99948.21;104795;1254;72625;-60
2023/06/12 01:15:10;;;;;;;4.40;2.50;;;;;;;12.90;100.00;99951.51;105141;1257;66039;-59
2023/06/12 01:17:40;;;;;;;4.90;2.50;;;;;;;12.90;100.00;99948.89;105116;1260;72785;-62
2023/06/12 01:20:11;;;;;;;7.70;3.10;;;;;;;12.91;100.00;99950.70;105041;1262;61713;-58
2023/06/12 01:22:47;;;;;;;4.30;2.60;;;;;;;12.92;100.00;99955.17;104856;1254;60537;-58
2023/06/12 01:25:32;;;;;;;5.30;3.40;;;;;;;12.93;100.00;99958.02;104782;1255;74447;-65
2023/06/12 01:28:22;;;;;;;3.60;2.40;;;;;;;12.92;100.00;99956.17;104956;1254;67051;-58
2023/06/12 01:30:59;;;;;;;4.40;2.60;;;;;;;12.92;100.00;99953.73;105234;1256;71605;-65
2023/06/12 01:33:33;;;;;;;7.20;3.30;;;;;;;12.89;100.00;99955.83;105031;1254;61909;-59
2023/06/12 01:36:00;;;;;;;4.00;2.50;;;;;;;12.88;100.00;99956.68;104901;1257;60345;-65
2023/06/12 01:38:29;;;;;;;5.50;2.60;;;;;;;12.89;100.00;99962.46;104591;1263;74600;-65
2023/06/12 01:40:58;;;;;;;9.20;2.90;;;;;;;12.88;100.00;99962.23;105002;1255;65685;-59
2023/06/12 01:43:25;;;;;;;4.60;2.90;;;;;;;12.90;100.00;99960.65;104911;1256;72666;-58
2023/06/12 01:45:53;;;;;;;6.90;2.80;;;;;;;12.89;100.00;99960.73;105134;1260;61707;-65
2023/06/12 01:48:21;;;;;;;8.60;2.60;;;;;;;12.89;100.00;99961.05;105242;1257;60527;-65
2023/06/12 01:50:49;;;;;;;4.30;3.00;;;;;;;12.89;100.00;99960.63;104717;1257;74397;-59
2023/06/12 01:53:17;;;;;;;4.10;2.60;;;;;;;12.89;100.00;99957.23;105035;1256;66966;-58
2023/06/12 01:55:49;;;;;;;5.50;3.00;;;;;;;12.89;100.00;99961.38;105284;1257;72701;-64
2023/06/12 01:58:18;;;;;;;5.20;2.30;;;;;;;12.90;100.00;99965.59;105095;1262;60533;-58
2023/06/12 02:01:05;;;;;;;5.70;3.00;;;;;;;12.91;100.00;99965.55;104865;1256;60335;-60
2023/06/12 02:11:18;;;;;;;5.90;3.10;;;;;;;12.94;100.00;99978.36;102040;1292;601827;-60
2023/06/12 02:13:47;;;;;;;5.30;3.00;;;;;;;12.95;100.00;99990.06;104598;1266;61708;-59
2023/06/12 02:16:20;;;;;;;6.50;2.80;;;;;;;12.95;100.00;99992.84;104448;1272;61223;-58
2023/06/12 02:18:49;;;;;;;4.70;2.10;;;;;;;12.96;100.00;99990.66;104475;1266;72820;-58
2023/06/12 02:21:16;;;;;;;4.00;2.30;;;;;;;12.97;100.00;99991.63;104191;1266;67431;-58
2023/06/12 02:23:45;;;;;;;7.90;2.70;;;;;;;12.96;100.00;99988.98;104891;1267;196304;-65
2023/06/12 02:26:17;;;;;;;5.00;2.60;;;;;;;12.96;100.00;99986.96;104578;1263;60550;-60
2023/06/12 02:28:47;;;;;;;4.40;2.80;;;;;;;12.96;100.00;99991.08;108855;1256;60001;-60
2023/06/12 02:31:15;;;;;;;4.10;2.20;;;;;;;12.97;100.00;99994.20;108897;1256;71250;-59
2023/06/12 02:33:43;;;;;;;5.40;2.50;;;;;;;13.00;100.00;99994.00;108797;1256;65726;-63
2023/06/12 02:36:11;;;;;;;3.90;2.20;;;;;;;13.03;100.00;99998.02;108900;1256;71720;-60
2023/06/12 02:38:39;;;;;;;6.60;2.60;;;;;;;13.04;100.00;100001.68;108796;1256;60506;-60
2023/06/12 02:41:11;;;;;;;4.60;2.40;;;;;;;13.05;100.00;100003.60;108859;1256;59349;-66
2023/06/12 02:43:40;;;;;;;5.70;2.20;;;;;;;13.07;100.00;100007.66;108809;1256;72059;-61
2023/06/12 02:46:08;;;;;;;3.50;2.10;;;;;;;13.09;100.00;100008.46;108769;1256;65853;-60
2023/06/12 02:48:35;;;;;;;4.50;2.40;;;;;;;13.11;100.00;100004.64;108785;1256;72781;-60
2023/06/12 02:51:03;;;;;;;5.50;2.80;;;;;;;13.09;100.00;100009.39;108837;1256;60112;-60
2023/06/12 02:53:31;;;;;;;3.70;2.10;;;;;;;13.10;100.00;100008.86;108807;1259;59773;-60
2023/06/12 02:55:59;;;;;;;3.60;1.80;;;;;;;13.15;100.00;100009.98;108817;1257;73483;-61
2023/06/12 02:58:27;;;;;;;5.70;2.60;;;;;;;13.20;100.00;100013.23;108800;1258;68066;-60
2023/06/12 03:00:56;;;;;;;5.60;2.10;;;;;;;13.23;100.00;100017.30;108695;1258;72741;-62
2023/06/12 03:03:25;;;;;;;4.40;2.40;;;;;;;13.26;100.00;100007.88;108759;1257;61738;-60
2023/06/12 03:05:52;;;;;;;7.00;2.30;;;;;;;13.30;100.00;100008.67;108793;1257;60031;-67
2023/06/12 03:08:20;;;;;;;4.70;2.30;;;;;;;13.33;100.00;100003.88;108832;1256;73105;-61
2023/06/12 03:10:48;;;;;;;4.30;2.40;;;;;;;13.36;100.00;99998.06;109122;1253;66345;-60
2023/06/12 03:13:15;;;;;;;5.90;2.50;;;;;;;13.41;100.00;99994.93;109274;1252;72395;-60
2023/06/12 03:15:44;;;;;;;5.40;2.40;;;;;;;13.46;100.00;99995.97;109148;1252;61737;-60
2023/06/12 03:18:11;;;;;;;4.90;2.40;;;;;;;13.49;100.00;99991.77;109230;1253;58207;-62
2023/06/12 03:20:39;;;;;;;7.90;2.20;;;;;;;13.52;100.00;99988.20;109289;1253;73096;-67
2023/06/12 03:23:07;;;;;;;4.20;2.10;;;;;;;13.55;100.00;99992.06;109071;1253;67198;-60
2023/06/12 03:25:35;;;;;;;4.50;2.00;;;;;;;13.56;100.00;99990.98;109248;1253;72394;-61
2023/06/12 03:28:03;;;;;;;3.90;2.20;;;;;;;13.58;100.00;99995.43;109114;1253;61774;-67
2023/06/12 03:30:31;;;;;;;3.70;2.30;;;;;;;13.58;100.00;99995.47;109285;1252;60169;-61
2023/06/12 03:32:58;;;;;;;5.30;2.20;;;;;;;13.59;100.00;99999.63;109252;1253;71841;-61
2023/06/12 03:35:29;;;;;;;4.70;1.80;;;;;;;13.62;100.00;100006.05;109202;1253;66990;-62
2023/06/12 03:37:57;;;;;;;6.20;2.20;;;;;;;13.67;100.00;100003.00;109213;1252;71577;-61
2023/06/12 03:40:24;;;;;;;3.00;1.70;;;;;;;13.65;100.00;100005.99;109249;1253;60914;-66
2023/06/12 03:42:52;;;;;;;4.20;1.90;;;;;;;13.65;100.00;100007.45;109092;1253;58854;-66
2023/06/12 03:45:20;;;;;;;4.70;2.60;;;;;;;13.67;100.00;100004.21;109216;1251;73168;-62
2023/06/12 03:47:48;;;;;;;5.60;2.40;;;;;;;13.64;100.00;100010.16;109231;1251;66883;-61
2023/06/12 03:50:16;;;;;;;4.70;2.20;;;;;;;13.63;100.00;100009.48;109152;1252;73577;-65
2023/06/12 03:52:44;;;;;;;6.30;2.30;;;;;;;13.63;100.00;100009.95;109142;1253;61237;-66
2023/06/12 03:55:13;;;;;;;5.20;2.40;;;;;;;13.65;100.00;100010.23;109086;1254;61652;-63
2023/06/12 03:57:41;;;;;;;8.60;2.40;;;;;;;13.66;100.00;100013.88;109215;1252;73060;-61
2023/06/12 04:00:09;;;;;;;4.30;2.00;;;;;;;13.65;100.00;100016.64;109216;1251;66868;-62
2023/06/12 04:02:43;;;;;;;6.00;2.40;;;;;;;13.63;100.00;100015.19;109230;1253;73830;-67
2023/06/12 04:05:12;;;;;;;4.90;2.00;;;;;;;13.63;100.00;100009.83;109181;1257;62251;-66
2023/06/12 04:07:40;;;;;;;5.10;2.00;;;;;;;13.62;100.00;100011.48;109311;1251;58847;-62
2023/06/12 04:10:08;;;;;;;5.70;2.10;;;;;;;13.61;100.00;100008.96;109238;1253;73125;-63
2023/06/12 04:12:36;;;;;;;4.10;1.80;;;;;;;13.63;100.00;100013.13;109081;1253;65934;-62
2023/06/12 04:15:06;;;;;;;3.40;2.10;;;;;;;13.66;100.00;100009.83;109112;1253;72655;-63
2023/06/12 04:17:34;;;;;;;4.90;1.80;;;;;;;13.65;100.00;100004.05;109349;1253;61787;-63
2023/06/12 04:20:02;;;;;;;3.80;2.20;;;;;;;13.66;100.00;100004.58;109340;1252;60249;-63
2023/06/12 04:22:30;;;;;;;5.30;2.10;;;;;;;13.65;100.00;99998.08;109254;1252;72219;-63
2023/06/12 04:25:01;;;;;;;4.40;1.70;;;;;;;13.65;100.00;99999.08;109226;1252;67495;-66
2023/06/12 04:27:30;;;;;;;2.90;1.90;;;;;;;13.68;100.00;99990.98;109160;1253;72703;-62
2023/06/12 04:29:59;;;;;;;5.70;1.80;;;;;;;13.71;100.00;99991.23;109192;1253;60462;-63
2023/06/12 04:32:29;;;;;;;4.00;2.20;;;;;;;13.75;100.00;99988.47;109161;1252;58761;-64
2023/06/12 04:34:57;;;;;;;3.80;2.30;;;;;;;13.79;100.00;99990.08;109155;1257;73685;-63
2023/06/12 04:37:25;;;;;;;6.30;2.00;;;;;;;13.85;100.00;99992.39;109294;1254;66938;-63
2023/06/12 04:39:53;;;;;;;4.80;1.90;;;;;;;13.91;100.00;99996.34;109290;1252;72809;-63
2023/06/12 04:42:23;;;;;;;4.70;2.20;;;;;;;13.96;100.00;100003.94;109240;1253;62084;-62
2023/06/12 04:44:50;;;;;;;3.70;2.00;;;;;;;13.97;100.00;99999.57;109038;1252;60465;-68
2023/06/12 04:47:18;;;;;;;5.60;2.30;;;;;;;13.99;100.00;99998.63;109227;1252;71736;-64
2023/06/12 04:49:46;;;;;;;3.90;1.90;;;;;;;14.03;100.00;100005.66;109301;1253;67217;-62
2023/06/12 04:52:13;;;;;;;7.60;2.30;;;;;;;14.08;100.00;100007.65;109091;1253;72502;-63
2023/06/12 04:54:44;;;;;;;5.80;2.20;;;;;;;14.11;100.00;100003.84;109170;1253;60460;-65
2023/06/12 04:57:12;;;;;;;4.50;2.10;;;;;;;14.16;100.00;100002.27;109304;1255;59682;-64
2023/06/12 04:59:42;;;;;;;5.20;2.10;;;;;;;14.23;100.00;99993.63;109191;1251;72485;-63
2023/06/12 05:02:10;;;;;;;6.70;2.10;;;;;;;14.30;100.00;99990.34;109130;1253;66972;-63
2023/06/12 05:04:38;;;;;;;3.70;1.80;;;;;;;14.39;100.00;99993.52;109243;1253;72738;-69
2023/06/12 05:07:08;;;;;;;5.30;1.80;;;;;;;14.50;100.00;99993.02;109211;1253;60447;-68
2023/06/12 05:09:35;;;;;;;6.80;2.90;;;;;;;14.59;100.00;99994.05;109130;1253;60110;-64
2023/06/12 05:12:03;;;;;;;4.00;1.80;;;;;;;14.64;100.00;99993.94;109153;1251;73247;-64
2023/06/12 05:14:37;;;;;;;4.50;2.40;;;;;;;14.69;100.00;99990.65;109123;1251;65436;-68
2023/06/12 05:17:05;;;;;;;7.00;2.20;;;;;;;14.75;100.00;99987.77;109131;1252;73310;-67
2023/06/12 05:19:35;;;;;;;4.50;1.90;;;;;;;14.81;100.00;99987.23;109096;1255;61785;-66
2023/06/12 05:22:03;;;;;;;6.00;2.20;;;;;;;14.87;100.00;99984.43;109214;1253;60086;-67
2023/06/12 05:24:31;;;;;;;4.70;2.30;;;;;;;14.91;100.00;99981.00;109234;1252;71649;-70
2023/06/12 05:27:00;;;;;;;9.70;1.90;;;;;;;14.99;100.00;99979.45;109267;1254;65709;-67
2023/06/12 05:29:27;;;;;;;4.50;2.00;;;;;;;15.03;100.00;99975.55;109186;1257;71120;-68
2023/06/12 05:31:55;;;;;;;7.40;2.40;;;;;;;15.11;100.00;99973.67;109240;1253;61731;-68
2023/06/12 05:34:23;;;;;;;3.20;1.80;;;;;;;15.19;100.00;99980.15;109137;1252;59026;-68
2023/06/12 05:36:51;;;;;;;8.10;2.70;;;;;;;15.20;100.00;99977.88;109265;1254;73071;-73
2023/06/12 05:39:18;;;;;;;4.80;2.20;;;;;;;15.21;100.00;99978.23;109293;1252;66552;-69
2023/06/12 05:41:46;;;;;;;5.40;2.20;;;;;;;15.25;100.00;99976.66;109113;1252;72717;-69
2023/06/12 05:44:14;;;;;;;4.40;2.00;;;;;;;15.38;100.00;99975.29;109117;1253;61713;-70
2023/06/12 05:46:41;;;;;;;4.90;2.30;;;;;;;15.54;100.00;99978.80;109245;1253;58836;-68
2023/06/12 05:49:09;;;;;;;5.40;2.30;;;;;;;15.66;100.00;99976.35;109003;1253;71904;-69
2023/06/12 05:51:37;;;;;;;5.30;2.40;;;;;;;15.73;100.00;99976.91;109116;1253;65988;-68
2023/06/12 05:54:05;;;;;;;5.60;2.10;;;;;;;15.74;100.00;99973.63;109261;1253;72752;-67
2023/06/12 05:56:32;;;;;;;6.10;2.20;;;;;;;15.77;100.00;99970.51;109141;1251;60285;-74
2023/06/12 05:59:00;;;;;;;4.70;1.90;;;;;;;15.85;100.00;99971.48;109064;1253;58806;-70
2023/06/12 06:01:31;;;;;;;3.30;1.90;;;;;;;15.95;100.00;99971.27;109193;1253;73018;-67
2023/06/12 06:03:59;;;;;;;5.30;2.00;;;;;;;16.06;100.00;99974.21;109344;1251;67072;-67
2023/06/12 06:06:30;;;;;;;4.10;2.30;;;;;;;16.14;100.00;99963.27;109313;1256;72675;-73
2023/06/12 06:09:00;;;;;;;3.80;2.20;;;;;;;16.16;100.00;99959.69;109277;1257;62400;-72
2023/06/12 06:11:28;;;;;;;6.30;2.10;;;;;;;16.17;100.00;99955.75;109186;1251;60170;-67
2023/06/12 06:13:58;;;;;;;3.80;1.90;;;;;;;16.21;100.00;99958.77;109234;1252;73045;-69
2023/06/12 06:16:26;;;;;;;5.90;2.10;;;;;;;16.31;100.00;99959.41;109286;1253;66323;-73
2023/06/12 06:19:11;;;;;;;5.30;1.90;;;;;;;16.38;100.00;99951.56;109233;1252;73672;-68
2023/06/12 06:21:39;;;;;;;4.10;1.80;;;;;;;16.41;100.00;99944.54;109316;1253;60444;-68
2023/06/12 06:24:07;;;;;;;5.50;2.00;;;;;;;16.37;100.00;99943.45;109340;1253;60109;-68
2023/06/12 06:26:35;;;;;;;5.40;2.50;;;;;;;16.30;100.00;99939.98;109164;1253;74369;-67
2023/06/12 06:29:02;;;;;;;4.20;1.70;;;;;;;16.24;100.00;99947.58;109206;1253;66942;-69
2023/06/12 06:31:40;;;;;;;4.60;1.90;;;;;;;16.26;100.00;99949.00;109158;1251;72753;-69
2023/06/12 06:34:10;;;;;;;4.70;1.80;;;;;;;16.30;100.00;99947.71;109289;1252;61724;-70
2023/06/12 06:36:38;;;;;;;3.60;1.90;;;;;;;16.38;100.00;99947.94;109310;1251;58422;-70
2023/06/12 06:39:05;;;;;;;3.30;2.10;;;;;;;16.42;100.00;99945.61;109147;1253;73909;-74
2023/06/12 06:41:33;;;;;;;6.80;2.30;;;;;;;16.45;100.00;99940.73;109326;1253;67019;-68
2023/06/12 06:44:01;;;;;;;5.50;2.20;;;;;;;16.56;100.00;99943.49;109132;1253;72725;-75
2023/06/12 06:46:29;;;;;;;3.90;1.60;;;;;;;16.66;100.00;99943.55;109301;1253;61691;-67
2023/06/12 06:48:57;;;;;;;4.60;2.10;;;;;;;16.76;100.00;99935.54;109130;1253;58848;-68
2023/06/12 06:51:25;;;;;;;6.20;1.90;;;;;;;16.86;100.00;99938.06;109280;1256;71649;-67
2023/06/12 06:53:53;;;;;;;5.50;2.10;;;;;;;16.95;100.00;99936.31;109100;1253;66294;-68
2023/06/12 06:56:21;;;;;;;4.90;1.80;;;;;;;17.03;100.00;99933.03;109026;1257;71275;-67
2023/06/12 06:58:49;;;;;;;8.40;2.20;;;;;;;16.97;100.00;99930.77;109234;1253;62128;-68
2023/06/12 07:01:17;;;;;;;5.50;2.00;;;;;;;16.88;100.00;99935.95;109269;1253;60462;-67
2023/06/12 07:03:45;;;;;;;3.30;2.00;;;;;;;16.86;100.00;99934.91;109129;1253;72647;-67
2023/06/12 07:06:13;;;;;;;4.80;2.30;;;;;;;16.81;100.00;99934.60;109059;1253;67049;-81
2023/06/12 07:08:41;;;;;;;3.40;2.00;;;;;;;16.76;100.00;99937.19;109044;1253;71357;-68
2023/06/12 07:11:09;;;;;;;7.10;2.40;;;;;;;16.75;100.00;99943.05;109022;1252;62390;-68
2023/06/12 07:13:40;;;;;;;3.30;1.50;;;;;;;16.81;100.00;99943.76;109071;1253;58907;-68
2023/06/12 07:16:08;;;;;;;3.50;1.60;;;;;;;16.90;100.00;99946.26;109058;1255;72634;-81
2023/06/12 07:18:36;;;;;;;5.50;1.90;;;;;;;16.98;100.00;99946.63;109077;1253;65524;-67
2023/06/12 07:21:03;;;;;;;6.10;1.80;;;;;;;17.08;100.00;99951.20;109238;1257;73336;-72
2023/06/12 07:23:31;;;;;;;3.80;2.00;;;;;;;17.15;100.00;99951.45;109327;1256;60900;-68
2023/06/12 07:25:58;;;;;;;3.90;1.60;;;;;;;17.20;100.00;99954.54;109306;1253;60284;-70
2023/06/12 07:28:45;;;;;;;4.10;1.80;;;;;;;17.13;100.00;99949.89;109094;1253;73994;-68
2023/06/12 07:31:13;;;;;;;4.60;1.90;;;;;;;17.08;100.00;99955.63;109171;1253;67276;-69
2023/06/12 07:33:42;;;;;;;5.10;1.60;;;;;;;17.12;100.00;99955.45;109278;1253;72972;-67
2023/06/12 07:36:10;;;;;;;4.10;1.80;;;;;;;17.12;100.00;99955.14;109137;1253;61799;-78
2023/06/12 07:38:39;;;;;;;5.40;2.10;;;;;;;17.08;100.00;99952.79;109310;1253;59166;-68
2023/06/12 07:41:07;;;;;;;3.00;1.70;;;;;;;17.08;100.00;99958.10;109116;1253;72665;-82
2023/06/12 07:43:35;;;;;;;4.10;1.90;;;;;;;17.05;100.00;99958.45;109314;1257;66838;-69
2023/06/12 07:46:05;;;;;;;2.90;1.50;;;;;;;17.00;100.00;99960.48;109279;1253;72717;-68
2023/06/12 07:48:33;;;;;;;3.40;1.50;;;;;;;16.98;100.00;99955.22;109103;1253;61953;-67
2023/06/12 07:51:00;;;;;;;3.10;1.60;;;;;;;17.00;100.00;99958.69;109137;1254;60896;-80
2023/06/12 07:53:28;;;;;;;4.00;1.90;;;;;;;17.09;100.00;99960.39;109200;1253;73948;-68
2023/06/12 07:56:09;;;;;;;5.50;1.90;;;;;;;17.22;100.00;99964.06;109210;1253;66975;-81
2023/06/12 07:58:37;;;;;;;3.30;1.90;;;;;;;17.29;100.00;99965.20;109258;1253;73283;-68
2023/06/12 08:01:06;;;;;;;3.20;1.70;;;;;;;17.30;100.00;99966.38;109116;1252;62116;-71
2023/06/12 08:03:38;;;;;;;3.70;1.80;;;;;;;17.28;100.00;99965.20;109105;1254;58786;-68
2023/06/12 08:06:09;;;;;;;3.80;1.80;;;;;;;17.32;100.00;99970.80;109199;1253;73961;-83
2023/06/12 08:08:42;;;;;;;4.70;1.80;;;;;;;17.36;100.00;99975.50;109231;1253;67850;-69
2023/06/12 08:11:10;;;;;;;5.10;1.90;;;;;;;17.33;100.00;99972.51;109056;1254;71487;-68
2023/06/12 08:13:40;;;;;;;4.40;1.60;;;;;;;17.27;100.00;99967.38;109182;1253;61846;-69
2023/06/12 08:16:08;;;;;;;4.60;1.90;;;;;;;17.20;100.00;99962.23;109138;1254;58838;-70
2023/06/12 08:18:36;;;;;;;5.80;1.90;;;;;;;17.10;100.00;99967.90;109366;1252;73982;-67
2023/06/12 08:21:04;;;;;;;6.80;2.20;;;;;;;17.04;100.00;99969.35;109154;1257;66965;-68
2023/06/12 08:23:31;;;;;;;7.00;1.90;;;;;;;17.02;100.00;99970.41;109219;1253;73148;-71
2023/06/12 08:26:00;;;;;;;4.00;1.90;;;;;;;17.07;100.00;99973.19;109198;1253;60514;-78
2023/06/12 08:28:27;;;;;;;4.90;2.10;;;;;;;17.16;100.00;99974.23;109369;1251;58990;-69
2023/06/12 08:30:57;;;;;;;3.20;1.60;;;;;;;17.23;100.00;99971.41;109322;1252;76055;-76
2023/06/12 08:33:25;;;;;;;4.70;2.00;;;;;;;17.32;100.00;99966.42;109265;1251;65723;-71
2023/06/12 08:35:53;;;;;;;7.10;2.00;;;;;;;17.44;100.00;99972.98;109170;1254;71430;-69
2023/06/12 08:38:21;;;;;;;4.20;2.00;;;;;;;17.50;100.00;99968.02;109196;1253;60471;-69
2023/06/12 08:40:52;;;;;;;7.70;2.40;;;;;;;17.47;100.00;99967.50;109291;1252;62311;-80
2023/06/12 08:43:20;;;;;;;;;;;;;;;17.49;100.00;99966.42;109326;1254;75551;-69
2023/06/12 08:45:47;;;;;;;5.50;2.40;;;;;;;17.64;100.00;99969.45;109172;1253;67953;-69
2023/06/12 08:48:16;;;;;;;5.40;2.70;;;;;;;17.90;100.00;99976.05;109093;1251;72772;-69
2023/06/12 08:50:44;;;;;;;7.40;1.90;;;;;;;18.16;100.00;99968.14;109310;1254;60065;-73
2023/06/12 08:53:12;;;;;;;2.70;1.70;;;;;;;18.40;100.00;99968.03;109274;1254;60094;-69
2023/06/12 08:55:40;;;;;;;3.70;1.80;;;;;;;18.58;100.00;99964.02;109329;1253;74344;-70
2023/06/12 08:58:08;;;;;;;4.00;2.00;;;;;;;18.76;100.00;99962.02;109329;1252;65770;-69
2023/06/12 09:00:36;;;;;;;3.90;1.70;;;;;;;18.88;100.00;99963.48;109141;1254;71379;-72
2023/06/12 09:03:06;;;;;;;3.50;1.80;;;;;;;19.00;100.00;99954.88;109333;1252;61231;-77
2023/06/12 09:05:37;;;;;;;5.40;1.60;;;;;;;19.18;100.00;99952.18;109306;1255;60125;-72
2023/06/12 09:08:05;;;;;;;3.90;2.00;;;;;;;19.29;100.00;99946.59;109326;1254;73868;-78
2023/06/12 09:10:33;;;;;;;6.20;2.10;;;;;;;19.41;100.00;99945.30;109270;1253;66972;-72
2023/06/12 09:13:06;;;;;;;3.60;1.70;;;;;;;19.71;100.00;99938.52;109079;1252;72737;-73
2023/06/12 09:15:34;;;;;;;5.70;1.50;;;;;;;20.13;100.00;99942.47;109171;1257;59353;-73
2023/06/12 09:18:07;;;;;;;4.50;2.00;;;;;;;20.48;100.00;99938.11;109281;1253;60768;-76
2023/06/12 09:20:36;;;;;;;3.60;1.70;;;;;;;20.60;100.00;99945.04;109153;1254;72647;-71
2023/06/12 09:23:10;;;;;;;4.90;2.10;;;;;;;20.62;100.00;99944.25;109245;1254;67853;-74
2023/06/12 09:25:39;;;;;;;3.20;1.80;;;;;;;20.60;100.00;99938.34;109315;1251;72837;-71
2023/06/12 09:28:09;;;;;;;5.10;2.20;;;;;;;20.54;100.00;99936.00;109323;1251;60609;-72
2023/06/12 09:30:41;;;;;;;2.50;1.60;;;;;;;20.45;100.00;99935.85;109336;1251;58788;-72
2023/06/12 09:33:08;;;;;;;3.40;1.50;;;;;;;20.54;100.00;99946.73;109318;1251;74687;-84
2023/06/12 09:35:52;;;;;;;5.00;1.80;;;;;;;20.67;100.00;99944.85;109320;1253;67381;-73
2023/06/12 09:38:29;;;;;;;5.80;1.90;;;;;;;20.83;100.00;99943.17;109202;1251;71429;-73
2023/06/12 09:40:58;;;;;;;7.90;2.20;;;;;;;21.01;100.00;99936.21;109132;1254;59558;-72
2023/06/12 09:43:26;;;;;;;5.70;1.90;;;;;;;21.11;100.00;99931.20;109364;1254;62492;-75
2023/06/12 09:45:54;;;;;;;5.10;1.90;;;;;;;21.26;100.00;99930.51;109382;1252;73919;-72
2023/06/12 09:48:22;;;;;;;4.00;1.90;;;;;;;21.39;100.00;99938.27;109317;1251;67093;-70
2023/06/12 09:50:50;;;;;;;4.10;1.70;;;;;;;21.46;100.00;99932.38;109250;1253;72824;-72
2023/06/12 09:53:20;;;;;;;4.80;2.10;;;;;;;21.46;100.00;99933.87;109247;1257;59438;-70
2023/06/12 09:55:49;;;;;;;4.10;1.90;;;;;;;21.39;100.00;99933.38;109314;1254;58717;-68
2023/06/12 09:58:17;;;;;;;5.20;1.80;;;;;;;21.46;100.00;99933.23;109119;1254;72649;-71
2023/06/12 10:00:45;;;;;;;3.70;2.00;;;;;;;21.58;100.00;99926.41;109097;1257;69500;-70
2023/06/12 10:03:14;;;;;;;4.40;1.90;;;;;;;21.74;100.00;99930.98;109081;1254;73246;-69
2023/06/12 10:05:49;;;;;;;3.90;1.80;;;;;;;21.82;100.00;99930.35;108966;1253;59223;-70
2023/06/12 10:08:17;;;;;;;8.50;1.70;;;;;;;21.82;100.00;99931.14;109122;1252;60131;-71
2023/06/12 10:10:45;;;;;;;4.30;2.00;;;;;;;22.00;100.00;99932.90;108973;1253;75195;-72
2023/06/12 10:13:14;;;;;;;3.80;2.10;;;;;;;22.13;100.00;99935.51;109408;1253;66173;-74
2023/06/12 10:15:41;;;;;;;6.30;2.00;;;;;;;22.13;100.00;99932.20;109238;1252;71352;-72
2023/06/12 10:18:09;;;;;;;3.60;1.80;;;;;;;22.10;100.00;99936.70;109335;1253;60084;-71
2023/06/12 10:20:37;;;;;;;2.70;1.70;;;;;;;22.15;100.00;99944.27;109321;1252;60014;-75
2023/06/12 10:23:05;;;;;;;4.30;1.80;;;;;;;22.07;100.00;99942.66;109059;1253;73213;-71
2023/06/12 10:25:32;;;;;;;5.30;1.90;;;;;;;21.99;100.00;99944.05;109305;1251;66984;-73
2023/06/12 10:28:00;;;;;;;5.50;2.20;;;;;;;22.09;100.00;99942.65;109208;1253;70996;-73
2023/06/12 10:30:28;;;;;;;3.80;1.70;;;;;;;22.12;100.00;99939.68;109234;1254;61163;-72
2023/06/12 10:32:56;;;;;;;5.10;2.00;;;;;;;22.04;100.00;99940.63;109276;1252;60522;-75
2023/06/12 10:35:29;;;;;;;6.40;2.40;;;;;;;21.93;100.00;99952.80;108971;1254;75969;-70
2023/06/12 10:37:56;;;;;;;4.10;1.80;;;;;;;21.95;100.00;99955.23;109326;1251;65773;-72
2023/06/12 10:40:24;;;;;;;4.00;1.90;;;;;;;21.98;100.00;99952.16;109265;1251;73182;-69
2023/06/12 10:43:12;;;;;;;8.30;2.20;;;;;;;21.89;100.00;99951.58;109263;1251;58878;-69
2023/06/12 10:45:39;;;;;;;5.60;2.10;;;;;;;21.81;100.00;99956.77;109334;1251;60096;-70
2023/06/12 10:48:11;;;;;;;3.80;1.70;;;;;;;21.64;100.00;99957.88;109312;1254;73818;-70
2023/06/12 10:50:49;;;;;;;6.30;1.80;;;;;;;21.47;100.00;99954.92;109333;1253;65608;-72
2023/06/12 10:53:20;;;;;;;4.40;1.90;;;;;;;21.48;100.00;99957.21;109335;1253;71668;-69
2023/06/12 10:55:48;;;;;;;4.20;1.90;;;;;;;21.52;100.00;99952.39;109369;1251;61708;-69
2023/06/12 10:58:21;;;;;;;5.90;2.00;;;;;;;21.59;100.00;99948.26;109273;1251;62964;-74
2023/06/12 11:00:51;;;;;;;2.70;1.70;;;;;;;21.59;100.00;99950.76;109217;1251;73298;-69
2023/06/12 11:03:28;;;;;;;6.50;2.50;;;;;;;21.47;100.00;99952.97;109302;1252;67477;-69
2023/06/12 11:06:00;;;;;;;4.40;1.60;;;;;;;21.40;100.00;99955.17;109158;1253;74834;-68
2023/06/12 11:08:28;;;;;;;5.40;1.80;;;;;;;21.41;100.00;99948.86;109149;1251;62733;-73
2023/06/12 11:10:55;;;;;;;4.60;2.10;;;;;;;21.35;100.00;99947.77;109304;1253;60684;-71
2023/06/12 11:13:24;;;;;;;6.90;1.90;;;;;;;21.28;100.00;99950.81;109342;1253;73862;-71
2023/06/12 11:15:52;;;;;;;3.40;2.00;;;;;;;21.22;100.00;99946.77;109162;1251;69654;-69
2023/06/12 11:18:20;;;;;;;4.70;1.70;;;;;;;21.24;100.00;99951.55;109201;1254;71815;-72
2023/06/12 11:20:55;;;;;;;4.40;1.90;;;;;;;21.25;100.00;99952.30;109236;1254;61438;-73
2023/06/12 11:23:28;;;;;;;5.80;2.00;;;;;;;21.27;100.00;99948.16;109333;1254;60100;-69
2023/06/12 11:25:57;;;;;;;5.30;2.40;;;;;;;21.27;100.00;99953.10;109320;1252;73256;-75
2023/06/12 11:28:26;;;;;;;4.20;2.20;;;;;;;21.27;100.00;99956.49;109193;1253;66314;-73
2023/06/12 11:30:54;;;;;;;3.70;2.20;;;;;;;21.33;100.00;99956.95;109148;1251;72902;-72
2023/06/12 11:33:24;;;;;;;3.50;1.90;;;;;;;21.43;100.00;99957.03;109295;1254;60160;-73